createdAt,value
2023-02-03T00:00:40.409Z,54.43
2023-02-03T00:03:14.645Z,55.05
2023-02-03T00:05:48.139Z,55.38
2023-02-03T00:08:34.732Z,56.09
2023-02-03T00:14:35.989Z,60.73
2023-02-03T00:17:14.497Z,63.89
2023-02-03T00:19:43.362Z,66.45
2023-02-03T00:22:14.145Z,67.51
2023-02-03T00:24:43.276Z,68.67
2023-02-03T00:27:23.455Z,69.41
2023-02-03T00:29:57.403Z,68.49
2023-02-03T00:32:26.552Z,71.00
2023-02-03T00:34:56.093Z,72.19
2023-02-03T00:37:26.105Z,72.32
2023-02-03T00:39:56.630Z,73.84
2023-02-03T00:42:25.632Z,75.64
2023-02-03T00:48:08.709Z,76.89
2023-02-03T01:04:10.301Z,87.53
2023-02-03T01:13:46.832Z,96.31
2023-02-03T01:16:33.053Z,97.93
2023-02-03T01:19:50.723Z,100.00
2023-02-03T01:33:30.367Z,100.00
2023-02-03T01:36:10.150Z,100.00
2023-02-03T01:42:13.808Z,100.00
2023-02-03T01:44:46.676Z,100.00
2023-02-03T01:47:42.500Z,100.00
2023-02-03T01:50:29.674Z,100.00
2023-02-03T01:53:07.109Z,100.00
2023-02-03T01:55:48.815Z,100.00
2023-02-03T01:58:28.090Z,100.00
2023-02-03T02:01:22.396Z,100.00
2023-02-03T02:03:58.267Z,100.00
2023-02-03T02:06:27.906Z,100.00
2023-02-03T02:09:02.392Z,100.00
2023-02-03T02:11:35.359Z,100.00
2023-02-03T02:14:11.466Z,100.00
2023-02-03T02:17:04.901Z,100.00
2023-02-03T02:20:01.227Z,100.00
2023-02-03T02:23:13.159Z,100.00
2023-02-03T02:25:56.186Z,100.00
2023-02-03T02:28:54.636Z,100.00
2023-02-03T02:36:07.644Z,100.00
2023-02-03T02:39:00.546Z,100.00
2023-02-03T02:41:51.539Z,100.00
2023-02-03T02:57:57.099Z,100.00
2023-02-03T03:00:35.843Z,100.00
2023-02-03T03:03:19.079Z,100.00
2023-02-03T03:05:57.120Z,100.00
2023-02-03T03:08:56.448Z,100.00
2023-02-03T03:11:34.895Z,100.00
2023-02-03T03:14:17.018Z,100.00
2023-02-03T03:16:52.980Z,100.00
2023-02-03T03:33:19.582Z,100.00
2023-02-03T03:36:16.884Z,100.00
2023-02-03T03:39:36.742Z,100.00
2023-02-03T03:43:55.797Z,100.00
2023-02-03T03:47:02.237Z,100.00
2023-02-03T03:49:35.376Z,100.00
2023-02-03T03:52:10.139Z,100.00
2023-02-03T03:54:53.318Z,100.00
2023-02-03T03:58:22.647Z,100.00
2023-02-03T04:01:25.767Z,100.00
2023-02-03T04:04:06.864Z,100.00
2023-02-03T04:06:41.111Z,100.00
2023-02-03T04:09:21.523Z,100.00
2023-02-03T04:12:28.037Z,100.00
2023-02-03T04:18:07.773Z,100.00
2023-02-03T04:21:06.921Z,100.00
2023-02-03T04:24:02.530Z,100.00
2023-02-03T04:30:16.440Z,100.00
2023-02-03T04:48:05.374Z,100.00
2023-02-03T04:50:34.876Z,100.00
2023-02-03T04:53:04.213Z,100.00
2023-02-03T04:55:33.286Z,100.00
2023-02-03T04:58:02.765Z,100.00
2023-02-03T05:00:33.703Z,100.00
2023-02-03T05:03:04.811Z,100.00
2023-02-03T05:05:38.064Z,100.00
2023-02-03T05:08:32.683Z,100.00
2023-02-03T05:11:17.468Z,100.00
2023-02-03T05:14:16.403Z,100.00
2023-02-03T05:17:05.082Z,100.00
2023-02-03T05:22:39.011Z,100.00
2023-02-03T05:25:32.359Z,100.00
2023-02-03T05:31:26.276Z,100.00
2023-02-03T05:34:23.068Z,100.00
2023-02-03T05:37:06.631Z,100.00
2023-02-03T05:46:39.326Z,100.00
2023-02-03T05:52:50.533Z,100.00
2023-02-03T05:55:32.910Z,100.00
2023-02-03T05:59:25.953Z,100.00
2023-02-03T06:08:53.457Z,100.00
2023-02-03T06:17:54.435Z,100.00
2023-02-03T06:20:35.990Z,100.00
2023-02-03T06:23:11.378Z,100.00
2023-02-03T06:25:42.796Z,100.00
2023-02-03T06:28:14.574Z,100.00
2023-02-03T06:30:49.103Z,100.00
2023-02-03T06:33:23.165Z,100.00
2023-02-03T06:35:55.791Z,100.00
2023-02-03T06:38:27.294Z,100.00
2023-02-03T06:40:56.188Z,100.00
2023-02-03T06:43:27.604Z,100.00
2023-02-03T06:46:00.009Z,100.00
2023-02-03T06:54:39.795Z,100.00
2023-02-03T06:57:09.795Z,100.00
2023-02-03T06:59:41.890Z,100.00
2023-02-03T07:02:36.164Z,100.00
2023-02-03T07:05:22.531Z,100.00
2023-02-03T07:07:59.757Z,100.00
2023-02-03T07:10:46.046Z,100.00
2023-02-03T07:13:19.047Z,100.00
2023-02-03T07:15:55.077Z,100.00
2023-02-03T07:18:46.438Z,100.00
2023-02-03T07:21:26.369Z,100.00
2023-02-03T07:24:06.248Z,100.00
2023-02-03T07:27:02.865Z,100.00
2023-02-03T07:29:53.207Z,100.00
2023-02-03T07:32:53.133Z,100.00
2023-02-03T07:35:28.217Z,100.00
2023-02-03T07:38:02.901Z,100.00
2023-02-03T07:40:31.953Z,100.00
2023-02-03T07:43:02.898Z,100.00
2023-02-03T07:45:37.517Z,100.00
2023-02-03T07:48:08.976Z,100.00
2023-02-03T07:53:51.926Z,100.00
2023-02-03T07:56:26.193Z,100.00
2023-02-03T07:59:03.972Z,100.00
2023-02-03T08:01:41.949Z,100.00
2023-02-03T08:04:18.871Z,100.00
2023-02-03T08:19:30.641Z,100.00
2023-02-03T08:22:18.425Z,100.00
2023-02-03T08:25:08.855Z,100.00
2023-02-03T08:59:22.987Z,100.00
2023-02-03T09:01:59.402Z,100.00
2023-02-03T09:04:37.293Z,100.00
2023-02-03T09:07:14.126Z,100.00
2023-02-03T09:09:51.727Z,100.00
2023-02-03T09:12:24.710Z,100.00
2023-02-03T09:14:56.868Z,100.00
2023-02-03T09:17:30.070Z,100.00
2023-02-03T09:20:07.210Z,100.00
2023-02-03T09:22:41.956Z,100.00
2023-02-03T09:25:34.545Z,100.00
2023-02-03T09:28:07.165Z,100.00
2023-02-03T09:30:36.392Z,100.00
2023-02-03T09:49:16.496Z,100.00
2023-02-03T09:52:30.903Z,100.00
2023-02-03T09:55:08.582Z,100.00
2023-02-03T10:07:13.311Z,100.00
2023-02-03T10:10:38.853Z,100.00
2023-02-03T10:52:06.773Z,100.00
2023-02-03T10:54:37.615Z,100.00
2023-02-03T10:57:15.345Z,100.00
2023-02-03T10:59:55.881Z,100.00
2023-02-03T11:02:32.277Z,100.00
2023-02-03T11:05:25.688Z,100.00
2023-02-03T11:07:58.598Z,100.00
2023-02-03T11:10:38.680Z,100.00
2023-02-03T11:13:25.166Z,100.00
2023-02-03T11:16:33.375Z,100.00
2023-02-03T11:19:08.625Z,100.00
2023-02-03T11:21:40.765Z,100.00
2023-02-03T11:24:25.172Z,100.00
2023-02-03T11:27:07.895Z,100.00
2023-02-03T11:29:44.138Z,100.00
2023-02-03T11:32:25.195Z,100.00
2023-02-03T11:35:04.906Z,100.00
2023-02-03T11:37:42.055Z,100.00
2023-02-03T11:40:15.665Z,100.00
2023-02-03T11:42:49.257Z,100.00
2023-02-03T11:45:28.473Z,100.00
2023-02-03T11:54:44.475Z,100.00
2023-02-03T12:59:54.345Z,100.00
2023-02-03T13:02:30.061Z,100.00
2023-02-03T13:05:07.727Z,100.00
2023-02-03T13:08:11.257Z,100.00
2023-02-03T13:10:52.067Z,100.00
2023-02-03T13:13:55.807Z,100.00
2023-02-03T13:16:37.381Z,100.00
2023-02-03T13:19:21.684Z,100.00
2023-02-03T13:21:53.712Z,100.00
2023-02-03T13:24:27.182Z,100.00
2023-02-03T13:27:18.954Z,100.00
2023-02-03T13:30:13.032Z,100.00
2023-02-03T13:33:05.512Z,100.00
2023-02-03T13:35:46.564Z,100.00
2023-02-03T13:38:51.503Z,100.00
2023-02-03T13:41:29.804Z,100.00
2023-02-03T13:44:02.236Z,100.00
2023-02-03T13:46:41.968Z,100.00
2023-02-03T13:49:25.704Z,100.00
2023-02-03T13:52:05.145Z,100.00
2023-02-03T13:54:39.888Z,100.00
2023-02-03T13:57:21.905Z,100.00
2023-02-03T13:59:54.096Z,100.00
2023-02-03T14:02:23.201Z,100.00
2023-02-03T14:04:56.151Z,100.00
2023-02-03T14:07:41.610Z,100.00
2023-02-03T14:10:26.238Z,100.00
2023-02-03T14:12:56.307Z,100.00
2023-02-03T14:15:33.796Z,100.00
2023-02-03T14:18:23.323Z,100.00
2023-02-03T14:20:58.027Z,100.00
2023-02-03T14:23:35.733Z,100.00
2023-02-03T14:26:06.285Z,100.00
2023-02-03T14:28:42.256Z,100.00
2023-02-03T14:31:28.509Z,100.00
2023-02-03T14:34:48.722Z,100.00
2023-02-03T14:40:59.176Z,100.00
2023-02-03T14:43:31.260Z,100.00
2023-02-03T14:46:09.736Z,100.00
2023-02-03T14:48:56.334Z,100.00
2023-02-03T14:51:33.334Z,100.00
2023-02-03T14:54:35.527Z,100.00
2023-02-03T14:57:21.633Z,100.00
2023-02-03T14:59:59.101Z,100.00
2023-02-03T15:03:00.020Z,100.00
2023-02-03T15:05:32.480Z,100.00
2023-02-03T15:08:04.933Z,100.00
2023-02-03T15:10:45.109Z,100.00
2023-02-03T15:13:31.401Z,100.00
2023-02-03T15:16:05.204Z,100.00
2023-02-03T15:18:38.699Z,100.00
2023-02-03T15:21:17.832Z,100.00
2023-02-03T15:23:50.110Z,100.00
2023-02-03T15:26:28.636Z,100.00
2023-02-03T15:29:05.370Z,100.00
2023-02-03T15:31:46.944Z,100.00
2023-02-03T15:34:31.004Z,100.00
2023-02-03T15:37:07.788Z,100.00
2023-02-03T15:39:43.750Z,100.00
2023-02-03T15:42:31.529Z,100.00
2023-02-03T15:45:22.274Z,100.00
2023-02-03T15:48:14.815Z,100.00
2023-02-03T15:51:04.667Z,100.00
2023-02-03T15:53:47.186Z,100.00
2023-02-03T15:56:45.840Z,100.00
2023-02-03T15:59:47.259Z,100.00
2023-02-03T16:02:21.835Z,100.00
2023-02-03T16:04:52.027Z,100.00
2023-02-03T16:07:31.257Z,100.00
2023-02-03T16:10:03.897Z,100.00
2023-02-03T16:12:34.757Z,100.00
2023-02-03T16:15:06.438Z,100.00
2023-02-03T16:17:38.047Z,100.00
2023-02-03T16:20:14.347Z,100.00
2023-02-03T16:22:52.102Z,100.00
2023-02-03T16:25:39.207Z,100.00
2023-02-03T16:28:47.011Z,100.00
2023-02-03T16:31:38.037Z,100.00
2023-02-03T16:34:48.851Z,100.00
2023-02-03T16:37:47.621Z,100.00
2023-02-03T16:40:42.525Z,100.00
2023-02-03T16:43:34.961Z,100.00
2023-02-03T16:46:22.328Z,100.00
2023-02-03T16:49:09.022Z,100.00
2023-02-03T16:51:42.425Z,100.00
2023-02-03T16:54:14.601Z,100.00
2023-02-03T16:56:55.823Z,100.00
2023-02-03T16:59:27.804Z,100.00
2023-02-03T17:01:56.845Z,100.00
2023-02-03T17:04:25.943Z,100.00
2023-02-03T17:06:58.853Z,100.00
2023-02-03T17:09:28.367Z,100.00
2023-02-03T17:11:57.254Z,100.00
2023-02-03T17:14:29.345Z,100.00
2023-02-03T17:16:59.952Z,100.00
2023-02-03T17:19:29.026Z,100.00
2023-02-03T17:21:59.514Z,100.00
2023-02-03T17:24:28.665Z,100.00
2023-02-03T17:26:59.113Z,100.00
2023-02-03T17:29:28.388Z,100.00
2023-02-03T17:31:57.485Z,100.00
2023-02-03T17:34:27.008Z,100.00
2023-02-03T17:36:59.072Z,100.00
2023-02-03T17:53:26.326Z,100.00
2023-02-03T17:56:06.126Z,100.00
2023-02-03T17:58:35.042Z,100.00
2023-02-03T18:01:19.016Z,100.00
2023-02-03T18:03:53.460Z,100.00
2023-02-03T18:06:25.772Z,100.00
2023-02-03T18:09:10.301Z,100.00
2023-02-03T18:11:40.164Z,100.00
2023-02-03T18:14:20.687Z,100.00
2023-02-03T18:16:53.782Z,100.00
2023-02-03T18:19:26.740Z,100.00
2023-02-03T18:22:01.983Z,100.00
2023-02-03T18:24:37.802Z,100.00
2023-02-03T18:27:07.104Z,100.00
2023-02-03T18:29:43.942Z,100.00
2023-02-03T18:32:17.465Z,100.00
2023-02-03T18:35:02.653Z,100.00
2023-02-03T18:37:37.514Z,100.00
2023-02-03T18:40:24.927Z,100.00
2023-02-03T18:43:14.342Z,100.00
2023-02-03T18:46:32.881Z,100.00
2023-02-03T18:49:25.915Z,100.00
2023-02-03T18:52:08.269Z,100.00
2023-02-03T18:54:38.874Z,100.00
2023-02-03T18:57:14.722Z,100.00
2023-02-03T19:02:33.324Z,100.00
2023-02-03T19:05:03.640Z,100.00
2023-02-03T19:07:40.985Z,100.00
2023-02-03T19:11:12.005Z,100.00
2023-02-03T19:13:50.689Z,100.00
2023-02-03T19:16:53.229Z,100.00
2023-02-03T19:19:26.820Z,100.00
2023-02-03T19:22:25.161Z,100.00
2023-02-03T19:25:01.669Z,100.00
2023-02-03T19:27:45.398Z,100.00
2023-02-03T19:30:19.788Z,100.00
2023-02-03T19:33:02.064Z,100.00
2023-02-03T19:42:36.669Z,100.00
2023-02-03T19:45:13.867Z,91.97
2023-02-03T19:47:48.733Z,88.30
2023-02-03T19:50:22.386Z,83.36
2023-02-03T19:53:00.543Z,79.98
2023-02-03T19:55:32.971Z,86.19
2023-02-03T19:58:03.741Z,100.00
2023-02-03T20:00:43.996Z,100.00
2023-02-03T20:06:29.658Z,100.00
2023-02-03T20:09:12.949Z,100.00
2023-02-03T20:11:45.286Z,100.00
2023-02-03T20:14:17.448Z,100.00
2023-02-03T20:16:50.264Z,100.00
2023-02-03T20:19:28.530Z,100.00
2023-02-03T20:22:25.045Z,100.00
2023-02-03T20:25:02.985Z,100.00
2023-02-03T20:27:43.615Z,100.00
2023-02-03T20:30:14.493Z,100.00
2023-02-03T20:32:46.756Z,100.00
2023-02-03T20:35:17.731Z,100.00
2023-02-03T20:37:47.097Z,100.00
2023-02-03T20:40:26.660Z,100.00
2023-02-03T20:43:01.559Z,100.00
2023-02-03T20:45:31.206Z,100.00
2023-02-03T20:48:09.088Z,100.00
2023-02-03T20:50:42.453Z,100.00
2023-02-03T20:53:21.133Z,100.00
2023-02-03T20:55:51.239Z,100.00
2023-02-03T20:58:32.032Z,100.00
2023-02-03T21:01:01.685Z,100.00
2023-02-03T21:03:50.669Z,100.00
2023-02-03T21:06:21.383Z,100.00
2023-02-03T21:08:56.354Z,100.00
2023-02-03T21:11:30.495Z,100.00
2023-02-03T21:14:05.079Z,100.00
2023-02-03T21:16:40.088Z,100.00
2023-02-03T21:19:19.455Z,100.00
2023-02-03T21:21:51.579Z,100.00
2023-02-03T21:24:37.599Z,100.00
2023-02-03T21:27:30.741Z,100.00
2023-02-03T21:30:02.114Z,100.00
2023-02-03T21:32:47.329Z,100.00
2023-02-03T21:35:38.398Z,100.00
2023-02-03T21:38:33.029Z,100.00
2023-02-03T21:41:20.094Z,100.00
2023-02-03T21:43:54.804Z,100.00
2023-02-03T21:46:34.629Z,100.00
2023-02-03T21:49:05.777Z,100.00
2023-02-03T21:51:41.984Z,100.00
2023-02-03T21:54:31.089Z,100.00
2023-02-03T21:57:06.245Z,100.00
2023-02-03T21:59:47.768Z,100.00
2023-02-03T22:03:20.059Z,100.00
2023-02-03T22:06:29.279Z,100.00
2023-02-03T22:09:34.265Z,100.00
2023-02-03T22:12:11.200Z,100.00
2023-02-03T22:14:48.230Z,100.00
2023-02-03T22:17:27.051Z,100.00
2023-02-03T22:19:56.243Z,100.00
2023-02-03T22:22:49.063Z,100.00
2023-02-03T22:25:21.702Z,100.00
2023-02-03T22:28:09.989Z,100.00
2023-02-03T22:30:53.903Z,100.00
2023-02-03T22:33:49.080Z,100.00
2023-02-03T22:36:26.283Z,100.00
2023-02-03T22:39:27.066Z,100.00
2023-02-03T22:42:20.563Z,100.00
2023-02-03T22:44:51.049Z,100.00
2023-02-03T22:47:20.777Z,100.00
2023-02-03T22:50:01.449Z,100.00
2023-02-03T22:52:33.319Z,100.00
2023-02-03T22:55:29.592Z,100.00
2023-02-03T22:58:01.552Z,100.00
2023-02-03T23:00:35.424Z,100.00
2023-02-03T23:03:14.213Z,100.00
2023-02-03T23:05:45.688Z,100.00
2023-02-03T23:08:15.916Z,100.00
2023-02-03T23:10:47.508Z,100.00
2023-02-03T23:13:17.570Z,100.00
2023-02-03T23:15:59.605Z,100.00
2023-02-03T23:19:16.433Z,100.00
2023-02-03T23:21:48.482Z,100.00
2023-02-03T23:24:25.600Z,100.00
2023-02-03T23:26:55.034Z,100.00
2023-02-03T23:29:24.077Z,100.00
2023-02-03T23:31:57.732Z,100.00
2023-02-03T23:34:47.581Z,100.00
2023-02-03T23:37:17.052Z,100.00
2023-02-03T23:39:52.171Z,100.00
2023-02-03T23:42:21.280Z,100.00
2023-02-03T23:44:58.344Z,100.00
2023-02-03T23:47:54.465Z,100.00
2023-02-03T23:50:23.677Z,100.00
2023-02-03T23:53:00.042Z,100.00
2023-02-03T23:55:32.307Z,100.00
2023-02-03T23:58:04.664Z,100.00
